createdAt,value
2019-06-08T00:02:25.556Z,18.80
2019-06-08T00:07:21.147Z,18.90
2019-06-08T00:12:16.943Z,19.00
2019-06-08T00:17:27.360Z,19.30
2019-06-08T00:22:09.081Z,19.50
2019-06-08T00:27:03.464Z,19.70
2019-06-08T00:31:58.018Z,19.70
2019-06-08T00:36:52.071Z,19.90
2019-06-08T00:41:46.720Z,20.10
2019-06-08T00:46:41.505Z,20.20
2019-06-08T00:51:37.417Z,20.10
2019-06-08T00:56:35.732Z,20.00
2019-06-08T01:01:31.498Z,19.90
2019-06-08T01:06:25.596Z,19.90
2019-06-08T01:11:20.967Z,19.70
2019-06-08T01:16:15.215Z,19.60
2019-06-08T01:21:09.867Z,19.50
2019-06-08T01:26:05.658Z,19.40
2019-06-08T01:31:00.930Z,19.30
2019-06-08T01:35:55.076Z,19.20
2019-06-08T01:40:50.347Z,19.20
2019-06-08T01:45:44.518Z,19.10
2019-06-08T01:50:38.977Z,19.10
2019-06-08T01:55:33.332Z,19.00
2019-06-08T02:00:35.015Z,18.80
2019-06-08T02:05:26.508Z,18.70
2019-06-08T02:10:21.664Z,18.60
2019-06-08T02:15:16.316Z,18.70
2019-06-08T02:20:11.483Z,18.70
2019-06-08T02:25:06.676Z,18.60
2019-06-08T02:30:01.677Z,18.50
2019-06-08T02:34:56.933Z,18.50
2019-06-08T02:39:51.247Z,18.40
2019-06-08T02:44:45.414Z,18.40
2019-06-08T02:49:39.814Z,18.40
2019-06-08T02:54:37.202Z,18.30
2019-06-08T02:59:35.653Z,18.30
2019-06-08T03:04:34.576Z,18.10
2019-06-08T03:09:30.803Z,17.90
2019-06-08T03:14:31.063Z,17.80
2019-06-08T03:19:26.623Z,17.70
2019-06-08T03:24:20.703Z,17.70
2019-06-08T03:29:14.912Z,17.60
2019-06-08T03:34:08.762Z,17.50
2019-06-08T03:39:03.708Z,17.50
2019-06-08T03:43:58.003Z,17.40
2019-06-08T03:48:54.035Z,17.10
2019-06-08T03:53:48.382Z,17.20
2019-06-08T03:58:42.895Z,17.30
2019-06-08T04:03:39.763Z,17.40
2019-06-08T04:08:35.652Z,17.60
2019-06-08T04:13:29.849Z,17.60
2019-06-08T04:18:24.044Z,17.60
2019-06-08T04:23:19.267Z,17.80
2019-06-08T04:28:13.873Z,18.90
2019-06-08T04:33:08.194Z,20.00
2019-06-08T04:38:06.184Z,20.50
2019-06-08T04:43:01.871Z,20.30
2019-06-08T04:47:56.604Z,20.10
2019-06-08T04:52:50.876Z,20.30
2019-06-08T04:57:47.941Z,20.90
2019-06-08T05:02:42.323Z,22.40
2019-06-08T05:07:37.008Z,22.80
2019-06-08T05:12:31.685Z,23.10
2019-06-08T05:17:26.872Z,24.10
2019-06-08T05:22:21.002Z,25.00
2019-06-08T05:27:15.411Z,26.00
2019-06-08T05:32:09.707Z,25.90
2019-06-08T05:37:04.031Z,24.60
2019-06-08T05:41:58.407Z,24.40
2019-06-08T05:46:54.345Z,24.50
2019-06-08T05:51:50.066Z,24.10
2019-06-08T05:56:45.980Z,23.80
2019-06-08T06:01:40.698Z,23.20
2019-06-08T06:06:36.668Z,22.50
2019-06-08T06:11:31.632Z,21.90
2019-06-08T06:16:26.498Z,21.50
2019-06-08T06:21:21.012Z,21.10
2019-06-08T06:26:18.128Z,20.90
2019-06-08T06:31:13.938Z,20.70
2019-06-08T06:36:08.304Z,20.50
2019-06-08T06:41:04.935Z,20.50
2019-06-08T06:46:04.607Z,20.40
2019-06-08T06:51:03.499Z,20.70
2019-06-08T06:56:00.178Z,21.10
2019-06-08T07:00:57.870Z,21.50
2019-06-08T07:05:54.264Z,22.00
2019-06-08T07:10:48.643Z,22.50
2019-06-08T07:15:44.854Z,22.90
2019-06-08T07:20:52.363Z,22.90
2019-06-08T07:25:48.459Z,22.40
2019-06-08T07:30:43.939Z,21.70
2019-06-08T07:35:38.851Z,21.40
2019-06-08T07:40:34.363Z,21.20
2019-06-08T07:45:29.062Z,21.20
2019-06-08T07:50:24.468Z,21.60
2019-06-08T07:55:19.514Z,21.80
2019-06-08T08:00:14.791Z,22.00
2019-06-08T08:05:09.879Z,21.80
2019-06-08T08:10:06.127Z,22.40
2019-06-08T08:15:02.016Z,23.60
2019-06-08T08:24:55.364Z,23.40
2019-06-08T08:29:50.309Z,23.50
2019-06-08T08:34:48.012Z,23.50
2019-06-08T08:39:43.761Z,23.20
2019-06-08T08:44:38.474Z,22.70
2019-06-08T08:49:33.182Z,22.60
2019-06-08T08:54:29.750Z,22.60
2019-06-08T08:59:24.171Z,22.40
2019-06-08T09:04:18.842Z,22.20
2019-06-08T09:09:14.827Z,22.10
2019-06-08T09:14:13.918Z,22.20
2019-06-08T09:19:08.891Z,22.40
2019-06-08T09:24:04.084Z,22.40
2019-06-08T09:29:10.117Z,22.40
2019-06-08T09:34:10.456Z,22.40
2019-06-08T09:39:03.132Z,22.30
2019-06-08T09:44:03.157Z,22.30
2019-06-08T09:48:59.473Z,22.40
2019-06-08T09:53:54.216Z,22.50
2019-06-08T09:58:51.344Z,22.60
2019-06-08T10:03:45.093Z,22.40
2019-06-08T10:08:39.075Z,22.30
2019-06-08T10:13:33.823Z,22.40
2019-06-08T10:18:28.881Z,22.60
2019-06-08T10:23:30.989Z,23.00
2019-06-08T10:28:21.796Z,23.40
2019-06-08T10:33:18.430Z,23.90
2019-06-08T10:38:13.388Z,24.50
2019-06-08T10:43:09.917Z,24.70
2019-06-08T10:48:07.902Z,24.10
2019-06-08T10:53:04.078Z,23.90
2019-06-08T10:57:58.101Z,24.90
2019-06-08T11:02:52.428Z,26.90
2019-06-08T11:07:48.005Z,28.40
2019-06-08T11:12:44.231Z,27.80
2019-06-08T11:17:38.788Z,27.70
2019-06-08T11:22:34.349Z,27.90
2019-06-08T11:27:29.383Z,28.20
2019-06-08T11:32:24.758Z,28.00
2019-06-08T11:37:20.815Z,27.70
2019-06-08T11:42:18.928Z,27.70
2019-06-08T11:47:13.555Z,27.70
2019-06-08T11:52:11.080Z,27.60
2019-06-08T11:57:09.993Z,27.40
2019-06-08T12:02:05.573Z,27.20
2019-06-08T12:07:00.256Z,27.20
2019-06-08T12:11:54.493Z,27.50
2019-06-08T12:16:49.469Z,27.20
2019-06-08T12:21:43.620Z,26.90
2019-06-08T12:26:38.875Z,27.00
2019-06-08T12:31:32.752Z,26.90
2019-06-08T12:36:30.427Z,26.60
2019-06-08T12:41:22.287Z,26.40
2019-06-08T12:46:20.899Z,26.40
2019-06-08T12:51:14.744Z,26.30
2019-06-08T12:56:10.612Z,26.30
2019-06-08T13:01:08.209Z,26.80
2019-06-08T13:06:01.840Z,27.30
2019-06-08T13:10:57.477Z,26.20
2019-06-08T13:15:52.250Z,25.70
2019-06-08T13:20:51.366Z,25.40
2019-06-08T13:25:43.904Z,25.20
2019-06-08T13:30:39.826Z,24.70
2019-06-08T13:35:34.618Z,24.80
2019-06-08T13:40:30.545Z,24.80
2019-06-08T13:45:24.876Z,25.00
2019-06-08T13:50:22.039Z,25.00
2019-06-08T13:55:34.056Z,24.70
2019-06-08T14:00:13.405Z,24.60
2019-06-08T14:05:08.364Z,24.60
2019-06-08T14:10:02.914Z,24.50
2019-06-08T14:14:58.426Z,24.40
2019-06-08T14:19:52.759Z,24.30
2019-06-08T14:24:47.871Z,24.30
2019-06-08T14:29:41.803Z,24.20
2019-06-08T14:34:38.487Z,24.10
2019-06-08T14:39:33.133Z,24.10
2019-06-08T14:49:26.439Z,24.00
2019-06-08T14:54:18.717Z,23.90
2019-06-08T14:59:12.627Z,23.60
2019-06-08T15:04:08.948Z,23.40
2019-06-08T15:09:03.384Z,23.40
2019-06-08T15:13:58.666Z,23.40
2019-06-08T15:18:52.627Z,23.30
2019-06-08T15:23:47.681Z,23.20
2019-06-08T15:28:42.390Z,23.10
2019-06-08T15:33:39.033Z,23.10
2019-06-08T15:38:33.569Z,23.10
2019-06-08T15:43:29.154Z,23.10
2019-06-08T15:48:24.104Z,23.00
2019-06-08T15:53:18.533Z,23.10
2019-06-08T15:58:14.763Z,23.00
2019-06-08T16:03:08.724Z,23.00
2019-06-08T16:08:04.265Z,22.90
2019-06-08T16:12:59.501Z,22.80
2019-06-08T16:17:54.021Z,22.80
2019-06-08T16:22:49.102Z,22.70
2019-06-08T16:27:43.266Z,22.60
2019-06-08T16:32:40.481Z,22.60
2019-06-08T16:37:35.726Z,22.50
2019-06-08T16:42:30.246Z,22.40
2019-06-08T16:47:24.366Z,22.30
2019-06-08T16:52:19.269Z,22.30
2019-06-08T16:57:15.656Z,22.30
2019-06-08T17:02:23.684Z,22.20
2019-06-08T17:07:18.659Z,22.10
2019-06-08T17:12:13.514Z,22.00
2019-06-08T17:17:09.548Z,21.90
2019-06-08T17:22:04.113Z,21.80
2019-06-08T17:26:58.271Z,21.70
2019-06-08T17:31:52.429Z,21.60
2019-06-08T17:36:46.448Z,21.50
2019-06-08T17:41:42.575Z,21.40
2019-06-08T17:46:39.159Z,21.40
2019-06-08T17:51:32.711Z,21.20
2019-06-08T17:56:27.012Z,21.10
2019-06-08T18:01:20.864Z,21.00
2019-06-08T18:06:17.835Z,20.90
2019-06-08T18:11:12.029Z,20.80
2019-06-08T18:16:08.929Z,20.70
2019-06-08T18:21:05.156Z,20.60
2019-06-08T18:25:59.039Z,20.40
2019-06-08T18:30:53.137Z,20.20
2019-06-08T18:35:49.311Z,20.10
2019-06-08T18:40:48.325Z,20.00
2019-06-08T18:45:43.150Z,19.80
2019-06-08T18:50:39.563Z,19.70
2019-06-08T18:55:35.425Z,19.50
2019-06-08T19:00:41.157Z,19.30
2019-06-08T19:05:35.065Z,19.10
2019-06-08T19:10:33.410Z,18.90
2019-06-08T19:15:33.573Z,18.70
2019-06-08T19:20:30.784Z,18.60
2019-06-08T19:25:26.776Z,18.50
2019-06-08T19:30:22.230Z,18.30
2019-06-08T19:35:18.400Z,18.10
2019-06-08T19:40:13.043Z,17.90
2019-06-08T19:45:08.716Z,17.70
2019-06-08T19:50:03.220Z,17.50
2019-06-08T19:54:59.752Z,17.40
2019-06-08T19:59:57.526Z,17.20
2019-06-08T20:04:54.980Z,17.10
2019-06-08T20:09:50.831Z,16.90
2019-06-08T20:14:48.468Z,16.80
2019-06-08T20:19:47.970Z,16.60
2019-06-08T20:24:42.453Z,16.50
2019-06-08T20:34:32.500Z,16.50
2019-06-08T20:39:27.334Z,16.40
2019-06-08T20:44:22.681Z,16.40
2019-06-08T20:49:17.296Z,16.10
2019-06-08T20:54:12.232Z,16.10
2019-06-08T20:59:08.362Z,16.00
2019-06-08T21:04:02.830Z,15.80
2019-06-08T21:08:57.929Z,15.60
2019-06-08T21:13:54.231Z,15.50
2019-06-08T21:18:50.900Z,15.30
2019-06-08T21:23:47.104Z,15.10
2019-06-08T21:28:41.983Z,14.90
2019-06-08T21:33:40.457Z,14.90
2019-06-08T21:38:34.695Z,14.80
2019-06-08T21:43:29.577Z,14.60
2019-06-08T21:48:23.655Z,14.50
2019-06-08T21:53:21.266Z,14.60
2019-06-08T21:58:17.724Z,14.60
2019-06-08T22:03:11.196Z,14.50
2019-06-08T22:08:11.789Z,14.20
2019-06-08T22:13:12.358Z,14.10
2019-06-08T22:18:08.016Z,14.10
2019-06-08T22:23:07.236Z,14.20
2019-06-08T22:28:02.344Z,14.20
2019-06-08T22:32:59.762Z,14.20
2019-06-08T22:37:54.999Z,14.20
2019-06-08T22:42:49.892Z,14.20
2019-06-08T22:47:47.998Z,14.30
2019-06-08T22:52:47.703Z,14.30
2019-06-08T22:57:41.879Z,14.30
2019-06-08T23:02:38.403Z,14.10
2019-06-08T23:07:32.870Z,14.00
2019-06-08T23:12:28.743Z,13.90
2019-06-08T23:17:27.927Z,13.90
2019-06-08T23:22:23.209Z,13.90
2019-06-08T23:27:18.843Z,14.00
2019-06-08T23:37:12.613Z,13.90
2019-06-08T23:42:05.896Z,13.80
2019-06-08T23:47:01.313Z,13.60
2019-06-08T23:51:58.114Z,13.50
2019-06-08T23:56:52.272Z,13.60
